Cecil, New Jersey
Current Conditions -  °F | °C
As of 3:54 AM on Wednesday 22 Oct 2014 (Local Time) from KMIV Reporting Station
Moderate Rain Moderate Rain  
Wind Chill: 55°   Ceiling: 1200
Heat Index: 55°   Visibility: 4mi
Dew Point: 54°   Wind: 10mph
Humidity: 96%   Direction: 20°NNE
Pressure: 29.8"   Gusts: NA
Location:  39.6478°N, 74.9514°W
Report Text: KMIV 220754Z AUTO 02009KT 4SM RA BR BKN012 BKN023 OVC055 13/12 A2980 RMK AO2 LTG DSNT E RAB01 SLP089 T01280122 PNO $
Loading
Personal Weather Stations






























Interactive Weather Map
Tropical Storm Tracking
New forecast layout! Learn more

10-Day Weather Forecast

Advertisements
Track Severe Weather on mobile